createdAt,value
2022-12-26T00:00:43.260Z,19.45
2022-12-26T00:03:10.210Z,17.70
2022-12-26T00:05:37.508Z,19.60
2022-12-26T00:08:04.640Z,16.25
2022-12-26T00:10:31.219Z,21.15
2022-12-26T00:13:40.431Z,21.25
2022-12-26T00:15:47.495Z,22.50
2022-12-26T00:18:14.023Z,23.60
2022-12-26T00:20:40.439Z,23.13
2022-12-26T00:23:07.302Z,18.58
2022-12-26T00:25:34.717Z,27.98
2022-12-26T00:28:01.753Z,24.20
2022-12-26T00:30:28.399Z,21.60
2022-12-26T00:32:55.246Z,22.40
2022-12-26T00:35:21.750Z,23.95
2022-12-26T00:37:48.284Z,24.33
2022-12-26T00:40:14.825Z,24.52
2022-12-26T00:42:41.238Z,25.83
2022-12-26T00:45:08.207Z,23.85
2022-12-26T00:47:34.665Z,23.52
2022-12-26T00:50:11.771Z,27.58
2022-12-26T00:52:41.828Z,22.25
2022-12-26T00:55:08.937Z,26.70
2022-12-26T00:57:35.420Z,25.95
2022-12-26T01:00:01.950Z,20.10
2022-12-26T01:02:40.828Z,23.83
2022-12-26T01:05:09.271Z,24.58
2022-12-26T01:08:20.331Z,23.98
2022-12-26T01:10:24.835Z,22.80
2022-12-26T01:12:51.725Z,21.88
2022-12-26T01:15:18.669Z,23.40
2022-12-26T01:17:48.338Z,20.92
2022-12-26T01:20:14.810Z,23.33
2022-12-26T01:22:41.352Z,22.25
2022-12-26T01:25:08.467Z,26.77
2022-12-26T01:27:34.975Z,25.25
2022-12-26T01:30:01.507Z,24.55
2022-12-26T01:32:28.219Z,24.88
2022-12-26T01:34:55.649Z,24.60
2022-12-26T01:37:23.579Z,26.65
2022-12-26T01:39:51.607Z,26.70
2022-12-26T01:42:22.365Z,25.45
2022-12-26T01:45:08.541Z,29.48
2022-12-26T01:47:48.518Z,28.75
2022-12-26T01:50:27.285Z,28.25
2022-12-26T01:52:56.527Z,34.03
2022-12-26T01:55:23.628Z,34.03
2022-12-26T01:57:58.793Z,31.45
2022-12-26T02:00:25.330Z,33.15
2022-12-26T02:03:10.376Z,35.47
2022-12-26T02:05:37.602Z,30.95
2022-12-26T02:08:18.510Z,34.95
2022-12-26T02:10:57.194Z,34.83
2022-12-26T02:13:24.169Z,36.22
2022-12-26T02:15:50.783Z,32.58
2022-12-26T02:18:17.265Z,35.35
2022-12-26T02:20:52.512Z,36.13
2022-12-26T02:23:51.119Z,30.38
2022-12-26T02:26:36.366Z,33.35
2022-12-26T02:29:18.030Z,35.65
2022-12-26T02:32:09.149Z,34.78
2022-12-26T02:34:53.448Z,27.00
2022-12-26T02:38:01.209Z,28.20
2022-12-26T02:40:36.885Z,28.35
2022-12-26T02:43:10.228Z,31.17
2022-12-26T02:46:23.692Z,33.13
2022-12-26T02:49:11.141Z,29.45
2022-12-26T02:52:18.298Z,34.38
2022-12-26T02:55:28.638Z,30.20
2022-12-26T02:58:24.122Z,31.10
2022-12-26T03:01:18.777Z,32.97
2022-12-26T03:04:08.197Z,33.25
2022-12-26T03:06:56.795Z,35.38
2022-12-26T03:09:51.498Z,33.85
2022-12-26T03:12:36.653Z,34.10
2022-12-26T03:15:07.084Z,34.20
2022-12-26T03:17:43.843Z,29.50
2022-12-26T03:20:31.141Z,29.15
2022-12-26T03:23:06.047Z,32.97
2022-12-26T03:26:01.012Z,32.00
2022-12-26T03:28:28.170Z,29.83
2022-12-26T03:30:57.350Z,30.77
2022-12-26T03:33:55.104Z,32.70
2022-12-26T03:36:36.997Z,28.50
2022-12-26T03:39:19.929Z,28.25
2022-12-26T03:42:18.225Z,31.48
2022-12-26T03:45:16.896Z,29.52
2022-12-26T03:48:15.788Z,33.08
2022-12-26T03:51:08.809Z,27.90
2022-12-26T03:54:06.891Z,28.80
2022-12-26T03:56:57.196Z,28.25
2022-12-26T04:00:07.144Z,27.35
2022-12-26T04:02:54.005Z,25.02
2022-12-26T04:05:40.209Z,25.25
2022-12-26T04:08:35.681Z,24.55
2022-12-26T04:11:22.657Z,26.85
2022-12-26T04:14:19.482Z,30.58
2022-12-26T04:17:45.534Z,25.80
2022-12-26T04:20:24.385Z,24.67
2022-12-26T04:23:39.045Z,21.17
2022-12-26T04:29:09.276Z,21.45
2022-12-26T04:32:21.646Z,22.58
2022-12-26T04:35:12.199Z,22.23
2022-12-26T04:38:02.925Z,22.42
2022-12-26T04:40:55.103Z,26.33
2022-12-26T04:43:48.354Z,21.65
2022-12-26T04:46:19.191Z,22.55
2022-12-26T04:49:06.403Z,20.23
2022-12-26T04:51:32.907Z,23.48
2022-12-26T04:53:59.383Z,19.65
2022-12-26T04:56:25.918Z,22.40
2022-12-26T04:58:52.636Z,25.33
2022-12-26T05:01:37.742Z,24.58
2022-12-26T05:04:23.308Z,23.42
2022-12-26T05:07:16.236Z,26.00
2022-12-26T05:09:42.832Z,23.40
2022-12-26T05:12:10.114Z,25.38
2022-12-26T05:14:37.204Z,28.27
2022-12-26T05:17:23.302Z,25.00
2022-12-26T05:20:08.429Z,25.88
2022-12-26T05:22:56.857Z,30.15
2022-12-26T05:25:45.972Z,27.02
2022-12-26T05:28:32.829Z,26.75
2022-12-26T05:31:02.682Z,29.80
2022-12-26T05:33:47.706Z,27.00
2022-12-26T05:36:16.170Z,28.20
2022-12-26T05:38:42.751Z,27.55
2022-12-26T05:41:09.405Z,26.38
2022-12-26T05:43:35.918Z,26.58
2022-12-26T05:46:02.506Z,25.48
2022-12-26T05:48:29.065Z,26.92
2022-12-26T05:51:00.480Z,26.00
2022-12-26T05:53:27.938Z,20.00
2022-12-26T05:55:54.490Z,21.73
2022-12-26T05:58:21.422Z,22.65
2022-12-26T06:00:47.982Z,20.20
2022-12-26T06:03:14.760Z,21.27
2022-12-26T06:05:41.249Z,20.92
2022-12-26T06:08:07.690Z,19.67
2022-12-26T06:10:34.171Z,20.67
2022-12-26T06:13:01.800Z,20.20
2022-12-26T06:15:28.309Z,18.67
2022-12-26T06:17:56.763Z,17.98
2022-12-26T06:20:23.313Z,17.42
2022-12-26T06:22:49.885Z,16.58
2022-12-26T06:25:16.641Z,14.68
2022-12-26T06:27:43.857Z,15.63
2022-12-26T06:30:10.747Z,12.32
2022-12-26T06:32:37.263Z,13.85
2022-12-26T06:35:03.880Z,13.57
2022-12-26T06:37:31.181Z,14.65
2022-12-26T06:39:57.699Z,15.95
2022-12-26T06:42:24.272Z,13.50
2022-12-26T06:44:50.738Z,14.68
2022-12-26T06:47:17.373Z,11.80
2022-12-26T06:49:43.948Z,12.93
2022-12-26T06:52:12.120Z,12.85
2022-12-26T06:54:38.671Z,15.10
2022-12-26T06:57:05.224Z,13.82
2022-12-26T06:59:34.053Z,14.25
2022-12-26T07:02:00.718Z,13.65
2022-12-26T07:04:27.319Z,15.38
2022-12-26T07:06:53.898Z,11.00
2022-12-26T07:09:25.948Z,14.75
2022-12-26T07:11:56.515Z,12.60
2022-12-26T07:14:23.039Z,11.40
2022-12-26T07:16:49.647Z,11.70
2022-12-26T07:19:16.465Z,12.60
2022-12-26T07:21:43.386Z,13.10
2022-12-26T07:24:18.596Z,12.95
2022-12-26T07:26:46.323Z,10.73
2022-12-26T07:29:14.004Z,13.27
2022-12-26T07:31:41.252Z,14.32
2022-12-26T07:34:08.265Z,13.93
2022-12-26T07:36:34.757Z,11.82
2022-12-26T07:39:01.300Z,11.65
2022-12-26T07:41:48.096Z,10.13
2022-12-26T07:44:14.569Z,10.32
2022-12-26T07:46:41.222Z,10.50
2022-12-26T07:49:08.161Z,11.55
2022-12-26T07:51:34.602Z,11.90
2022-12-26T07:54:04.305Z,11.73
2022-12-26T07:56:34.173Z,10.55
2022-12-26T07:59:00.912Z,11.07
2022-12-26T08:01:28.390Z,10.52
2022-12-26T08:03:55.084Z,10.32
2022-12-26T08:06:21.691Z,9.55
2022-12-26T08:08:51.638Z,13.32
2022-12-26T08:11:22.435Z,10.00
2022-12-26T08:13:52.393Z,11.30
2022-12-26T08:16:19.619Z,8.05
2022-12-26T08:18:46.304Z,9.98
2022-12-26T08:21:13.063Z,10.55
2022-12-26T08:23:40.050Z,10.60
2022-12-26T08:26:12.501Z,8.70
2022-12-26T08:28:40.161Z,9.23
2022-12-26T08:31:08.354Z,7.68
2022-12-26T08:33:35.577Z,7.68
2022-12-26T08:36:06.907Z,7.72
2022-12-26T08:38:34.128Z,9.55
2022-12-26T08:41:01.188Z,10.13
2022-12-26T08:44:03.578Z,8.23
2022-12-26T08:46:15.005Z,9.70
2022-12-26T08:48:41.860Z,7.60
2022-12-26T08:51:12.674Z,8.18
2022-12-26T08:53:39.344Z,8.80
2022-12-26T08:56:08.087Z,7.30
2022-12-26T08:58:35.287Z,7.05
2022-12-26T09:01:16.799Z,8.63
2022-12-26T09:03:44.001Z,8.05
2022-12-26T09:06:12.553Z,12.15
2022-12-26T09:08:39.978Z,10.07
2022-12-26T09:11:18.031Z,8.52
2022-12-26T09:13:48.275Z,9.60
2022-12-26T09:16:17.535Z,6.70
2022-12-26T09:18:45.259Z,11.32
2022-12-26T09:21:13.457Z,7.15
2022-12-26T09:23:40.487Z,8.10
2022-12-26T09:26:08.954Z,6.50
2022-12-26T09:28:36.121Z,8.52
2022-12-26T09:31:05.032Z,9.80
2022-12-26T09:33:37.676Z,8.60
2022-12-26T09:36:14.501Z,12.75
2022-12-26T09:41:16.091Z,10.13
2022-12-26T09:44:28.272Z,7.72
2022-12-26T09:47:15.071Z,5.88
2022-12-26T09:49:53.912Z,6.85
2022-12-26T09:52:29.552Z,9.77
2022-12-26T09:55:02.809Z,7.90
2022-12-26T09:57:46.442Z,6.47
2022-12-26T10:00:28.035Z,5.18
2022-12-26T10:02:57.657Z,6.47
2022-12-26T10:05:33.215Z,7.35
2022-12-26T10:08:48.912Z,10.07
2022-12-26T10:11:53.468Z,11.50
2022-12-26T10:14:42.874Z,10.30
2022-12-26T10:17:30.805Z,9.68
2022-12-26T10:20:24.802Z,6.38
2022-12-26T10:22:56.910Z,6.07
2022-12-26T10:25:34.036Z,9.65
2022-12-26T10:30:35.848Z,7.93
2022-12-26T10:33:12.405Z,8.30
2022-12-26T10:35:44.628Z,6.18
2022-12-26T10:38:28.542Z,7.40
2022-12-26T10:40:58.630Z,8.82
2022-12-26T10:43:30.302Z,7.63
2022-12-26T10:46:21.473Z,9.45
2022-12-26T10:48:48.410Z,7.07
2022-12-26T10:51:16.152Z,10.07
2022-12-26T10:53:51.096Z,8.43
2022-12-26T10:56:18.453Z,7.63
2022-12-26T10:58:46.830Z,6.40
2022-12-26T11:01:28.457Z,4.63
2022-12-26T11:03:57.305Z,4.22
2022-12-26T11:06:27.682Z,6.30
2022-12-26T11:08:54.521Z,5.82
2022-12-26T11:11:24.534Z,7.53
2022-12-26T11:14:01.624Z,5.20
2022-12-26T11:16:40.535Z,6.82
2022-12-26T11:19:09.840Z,7.35
2022-12-26T11:21:36.352Z,5.53
2022-12-26T11:24:08.524Z,6.55
2022-12-26T11:26:35.668Z,5.68
2022-12-26T11:29:11.326Z,6.75
2022-12-26T11:31:40.534Z,4.35
2022-12-26T11:34:17.852Z,4.30
2022-12-26T11:36:48.256Z,7.43
2022-12-26T11:39:28.274Z,7.35
2022-12-26T11:41:55.607Z,6.07
2022-12-26T11:44:26.870Z,6.70
2022-12-26T11:47:13.811Z,6.35
2022-12-26T11:49:46.070Z,6.78
2022-12-26T11:52:31.239Z,6.00
2022-12-26T11:54:57.710Z,5.85
2022-12-26T11:57:33.817Z,8.05
2022-12-26T12:00:19.370Z,2.97
2022-12-26T12:02:46.286Z,4.43
2022-12-26T12:05:16.625Z,6.68
2022-12-26T12:08:02.025Z,4.35
2022-12-26T12:10:48.706Z,7.20
2022-12-26T12:13:53.733Z,3.88
2022-12-26T12:16:41.571Z,4.85
2022-12-26T12:19:33.272Z,6.40
2022-12-26T12:22:45.090Z,4.53
2022-12-26T12:25:14.078Z,4.10
2022-12-26T12:27:53.375Z,4.10
2022-12-26T12:30:22.516Z,4.80
2022-12-26T12:33:07.358Z,3.92
2022-12-26T12:35:54.700Z,6.65
2022-12-26T12:38:32.000Z,5.93
2022-12-26T12:43:52.100Z,4.85
2022-12-26T12:46:52.167Z,5.28
2022-12-26T12:49:30.527Z,5.85
2022-12-26T12:52:20.604Z,4.55
2022-12-26T12:55:24.475Z,5.90
2022-12-26T12:58:02.254Z,5.30
2022-12-26T13:00:39.456Z,4.13
2022-12-26T13:06:05.260Z,3.85
2022-12-26T13:08:39.990Z,5.65
2022-12-26T13:11:13.600Z,4.60
2022-12-26T13:14:12.993Z,4.55
2022-12-26T13:16:43.882Z,3.75
2022-12-26T13:19:27.531Z,5.75
2022-12-26T13:22:00.622Z,4.95
2022-12-26T13:24:39.410Z,2.70
2022-12-26T13:27:16.150Z,5.43
2022-12-26T13:29:47.871Z,5.78
2022-12-26T13:32:26.285Z,3.25
2022-12-26T13:34:54.719Z,4.32
2022-12-26T13:37:39.343Z,3.20
2022-12-26T13:40:21.259Z,9.77
2022-12-26T13:43:12.877Z,3.85
2022-12-26T13:45:42.120Z,6.15
2022-12-26T13:48:17.819Z,5.35
2022-12-26T13:50:56.454Z,2.67
2022-12-26T13:53:25.997Z,6.20
2022-12-26T13:56:04.585Z,5.50
2022-12-26T13:58:46.256Z,6.60
2022-12-26T14:01:34.586Z,3.42
2022-12-26T14:04:25.893Z,4.88
2022-12-26T14:07:14.264Z,7.82
2022-12-26T14:10:11.857Z,5.10
2022-12-26T14:13:00.063Z,6.95
2022-12-26T14:15:45.414Z,6.50
2022-12-26T14:18:46.667Z,5.60
2022-12-26T14:21:40.055Z,7.55
2022-12-26T14:24:09.790Z,6.88
2022-12-26T14:27:01.079Z,7.40
2022-12-26T14:29:55.572Z,8.55
2022-12-26T14:32:37.609Z,9.07
2022-12-26T14:35:31.876Z,13.05
2022-12-26T14:38:42.429Z,12.43
2022-12-26T14:41:31.092Z,9.77
2022-12-26T14:44:08.844Z,10.32
2022-12-26T14:46:38.582Z,4.55
2022-12-26T14:49:35.848Z,7.93
2022-12-26T14:52:40.800Z,7.10
2022-12-26T14:55:45.588Z,6.05
2022-12-26T14:58:38.154Z,14.55
2022-12-26T15:01:12.805Z,13.65
2022-12-26T15:04:04.829Z,4.93
2022-12-26T15:07:02.746Z,4.72
2022-12-26T15:09:51.048Z,9.48
2022-12-26T15:12:58.557Z,9.82
2022-12-26T15:15:31.825Z,5.93
2022-12-26T15:18:26.298Z,6.22
2022-12-26T15:21:18.366Z,9.13
2022-12-26T15:23:47.771Z,8.00
2022-12-26T15:26:32.519Z,5.65
2022-12-26T15:29:23.318Z,11.63
2022-12-26T15:32:03.531Z,6.75
2022-12-26T15:34:40.490Z,7.85
2022-12-26T15:37:25.392Z,10.13
2022-12-26T15:40:16.337Z,10.80
2022-12-26T15:43:07.869Z,9.18
2022-12-26T15:45:47.211Z,6.53
2022-12-26T15:48:25.492Z,9.35
2022-12-26T15:51:17.253Z,12.18
2022-12-26T15:54:14.790Z,11.93
2022-12-26T15:56:41.191Z,9.40
2022-12-26T15:59:35.575Z,6.30
2022-12-26T16:02:04.948Z,16.17
2022-12-26T16:04:37.564Z,12.73
2022-12-26T16:07:15.931Z,14.65
2022-12-26T16:09:46.568Z,10.27
2022-12-26T16:12:35.270Z,10.10
2022-12-26T16:15:17.096Z,5.90
2022-12-26T16:17:44.180Z,7.85
2022-12-26T16:20:55.976Z,10.52
2022-12-26T16:23:25.683Z,8.30
2022-12-26T16:25:54.937Z,9.88
2022-12-26T16:28:26.756Z,7.07
2022-12-26T16:30:53.633Z,10.55
2022-12-26T16:33:20.295Z,9.23
2022-12-26T16:35:46.944Z,6.80
2022-12-26T16:38:23.819Z,10.15
2022-12-26T16:40:51.685Z,10.77
2022-12-26T16:43:18.147Z,8.82
2022-12-26T16:45:54.446Z,7.32
2022-12-26T16:48:24.299Z,11.43
2022-12-26T16:50:59.848Z,11.20
2022-12-26T16:53:35.611Z,6.95
2022-12-26T16:56:20.782Z,9.45
2022-12-26T16:59:04.666Z,7.25
2022-12-26T17:01:32.474Z,9.75
2022-12-26T17:04:06.026Z,8.48
2022-12-26T17:06:38.876Z,12.93
2022-12-26T17:09:17.199Z,9.10
2022-12-26T17:12:08.151Z,9.73
2022-12-26T17:14:38.446Z,6.53
2022-12-26T17:17:24.830Z,9.85
2022-12-26T17:19:54.837Z,10.43
2022-12-26T17:22:29.383Z,12.68
2022-12-26T17:25:17.721Z,10.88
2022-12-26T17:27:45.249Z,7.90
2022-12-26T17:30:29.975Z,11.57
2022-12-26T17:33:05.827Z,14.73
2022-12-26T17:36:13.512Z,8.60
2022-12-26T17:38:27.612Z,8.60
2022-12-26T17:41:01.622Z,13.10
2022-12-26T17:43:37.606Z,10.38
2022-12-26T17:46:06.652Z,11.25
2022-12-26T17:48:36.222Z,11.38
2022-12-26T17:51:06.952Z,13.65
2022-12-26T17:53:35.337Z,9.80
2022-12-26T17:56:24.329Z,8.88
2022-12-26T17:58:51.112Z,9.98
2022-12-26T18:01:21.274Z,9.25
2022-12-26T18:03:48.837Z,8.57
2022-12-26T18:06:20.011Z,12.00
2022-12-26T18:08:49.866Z,8.07
2022-12-26T18:11:16.755Z,8.48
2022-12-26T18:13:44.303Z,9.57
2022-12-26T18:16:19.147Z,9.52
2022-12-26T18:18:47.323Z,13.80
2022-12-26T18:21:15.802Z,10.43
2022-12-26T18:23:42.665Z,9.85
2022-12-26T18:26:18.648Z,20.38
2022-12-26T18:28:45.710Z,13.38
2022-12-26T18:31:16.581Z,13.70
2022-12-26T18:33:43.174Z,20.30
2022-12-26T18:36:14.236Z,14.25
2022-12-26T18:38:41.138Z,9.23
2022-12-26T18:41:13.478Z,9.48
2022-12-26T18:43:39.951Z,13.23
2022-12-26T18:46:09.341Z,11.50
2022-12-26T18:48:35.888Z,11.38
2022-12-26T18:51:02.764Z,12.48
2022-12-26T18:53:29.432Z,8.43
2022-12-26T18:55:55.863Z,8.50
2022-12-26T18:58:22.367Z,11.20
2022-12-26T19:00:48.926Z,9.80
2022-12-26T19:03:15.423Z,7.38
2022-12-26T19:05:41.952Z,8.57
2022-12-26T19:08:08.580Z,12.02
2022-12-26T19:10:35.567Z,9.43
2022-12-26T19:13:06.307Z,9.63
2022-12-26T19:15:35.049Z,6.50
2022-12-26T19:18:02.101Z,11.82
2022-12-26T19:20:28.723Z,8.35
2022-12-26T19:22:56.087Z,8.80
2022-12-26T19:25:24.883Z,11.23
2022-12-26T19:27:51.787Z,5.75
2022-12-26T19:30:19.566Z,14.35
2022-12-26T19:32:46.497Z,8.57
2022-12-26T19:35:16.368Z,7.43
2022-12-26T19:37:43.423Z,16.48
2022-12-26T19:40:11.201Z,10.02
2022-12-26T19:42:38.441Z,12.10
2022-12-26T19:45:06.875Z,14.45
2022-12-26T19:47:34.426Z,13.45
2022-12-26T19:50:01.478Z,9.40
2022-12-26T19:52:30.598Z,6.30
2022-12-26T19:54:57.155Z,10.40
2022-12-26T19:57:23.790Z,8.60
2022-12-26T19:59:50.909Z,5.40
2022-12-26T20:02:17.854Z,11.00
2022-12-26T20:04:44.695Z,10.55
2022-12-26T20:07:11.245Z,11.88
2022-12-26T20:09:40.913Z,5.68
2022-12-26T20:12:07.559Z,6.10
2022-12-26T20:14:34.196Z,9.23
2022-12-26T20:17:06.174Z,5.63
2022-12-26T20:19:34.152Z,9.05
2022-12-26T20:22:00.715Z,8.30
2022-12-26T20:24:27.189Z,7.70
2022-12-26T20:26:53.718Z,6.18
2022-12-26T20:29:20.295Z,8.57
2022-12-26T20:31:46.877Z,8.50
2022-12-26T20:34:13.494Z,6.18
2022-12-26T20:36:41.480Z,7.63
2022-12-26T20:39:15.690Z,10.70
2022-12-26T20:41:42.310Z,12.68
2022-12-26T20:44:09.917Z,7.65
2022-12-26T20:46:36.515Z,10.13
2022-12-26T20:49:04.944Z,10.50
2022-12-26T20:51:37.555Z,13.00
2022-12-26T20:54:06.640Z,11.90
2022-12-26T20:56:33.917Z,9.57
2022-12-26T20:59:00.575Z,7.43
2022-12-26T21:01:28.384Z,11.18
2022-12-26T21:03:56.822Z,11.35
2022-12-26T21:06:25.402Z,7.07
2022-12-26T21:08:53.331Z,6.90
2022-12-26T21:11:23.606Z,7.65
2022-12-26T21:13:52.402Z,10.65
2022-12-26T21:16:23.805Z,9.30
2022-12-26T21:18:50.422Z,10.27
2022-12-26T21:21:20.267Z,10.10
2022-12-26T21:23:47.461Z,6.13
2022-12-26T21:26:14.374Z,6.30
2022-12-26T21:28:41.503Z,8.30
2022-12-26T21:31:10.963Z,7.05
2022-12-26T21:33:44.248Z,5.70
2022-12-26T21:36:12.904Z,7.57
2022-12-26T21:38:40.171Z,7.32
2022-12-26T21:41:11.209Z,5.40
2022-12-26T21:43:37.680Z,4.65
2022-12-26T21:46:13.935Z,10.60
2022-12-26T21:48:47.187Z,7.43
2022-12-26T21:51:15.442Z,11.05
2022-12-26T21:53:43.142Z,11.48
2022-12-26T21:56:14.930Z,7.07
2022-12-26T21:59:01.035Z,5.82
2022-12-26T22:01:29.493Z,5.75
2022-12-26T22:04:15.224Z,5.90
2022-12-26T22:06:42.645Z,8.88
2022-12-26T22:09:09.351Z,7.75
2022-12-26T22:11:54.436Z,8.38
2022-12-26T22:14:21.479Z,7.10
2022-12-26T22:16:52.057Z,5.78
2022-12-26T22:19:18.522Z,8.73
2022-12-26T22:21:45.091Z,9.13
2022-12-26T22:24:14.849Z,15.95
2022-12-26T22:26:41.470Z,7.60
2022-12-26T22:29:08.479Z,10.23
2022-12-26T22:31:36.971Z,10.73
2022-12-26T22:34:06.403Z,9.50
2022-12-26T22:36:33.834Z,9.98
2022-12-26T22:39:00.846Z,11.40
2022-12-26T22:41:28.133Z,12.18
2022-12-26T22:43:56.143Z,9.25
2022-12-26T22:46:23.043Z,7.68
2022-12-26T22:48:49.814Z,16.02
2022-12-26T22:51:18.966Z,7.38
2022-12-26T22:53:46.476Z,7.50
2022-12-26T22:56:13.383Z,9.13
2022-12-26T22:58:40.010Z,11.38
2022-12-26T23:01:17.793Z,8.25
2022-12-26T23:03:44.509Z,14.43
2022-12-26T23:06:25.725Z,5.47
2022-12-26T23:08:54.613Z,6.38
2022-12-26T23:11:22.430Z,10.45
2022-12-26T23:13:49.707Z,10.93
2022-12-26T23:16:22.333Z,8.68
2022-12-26T23:19:16.119Z,11.25
2022-12-26T23:21:45.476Z,8.57
2022-12-26T23:24:16.509Z,9.52
2022-12-26T23:26:52.145Z,12.00
2022-12-26T23:29:39.917Z,10.90
2022-12-26T23:32:08.900Z,8.23
2022-12-26T23:34:35.915Z,10.18
2022-12-26T23:37:03.110Z,11.52
2022-12-26T23:39:29.803Z,11.55
2022-12-26T23:41:56.553Z,9.13
2022-12-26T23:44:23.210Z,8.05
2022-12-26T23:46:49.820Z,10.88
2022-12-26T23:49:16.516Z,8.95
2022-12-26T23:51:43.354Z,8.50
2022-12-26T23:54:09.962Z,9.77
2022-12-26T23:56:37.130Z,8.93
2022-12-26T23:59:04.910Z,10.68
